Time,TemperatureF,DewpointF,PressureIn,WindDirection,WindDirectionDegrees,WindSpeedMPH,WindSpeedGustMPH,Humidity,HourlyPrecipIn,Conditions,Clouds,dailyrainin,SoftwareType,DateUTC
2013-09-22 00:02:00,58.5,57.6,29.75,SSE,148,0.0,1.0,97,0.00,,,0.66,meteohub,2013-09-22 04:02:00,
2013-09-22 00:03:00,58.5,57.6,29.75,SSE,148,0.0,1.0,97,0.00,,,0.66,meteohub,2013-09-22 04:03:00,
2013-09-22 00:07:00,58.5,57.6,29.75,SE,142,1.0,1.0,97,0.00,,,0.00,meteohub,2013-09-22 04:07:00,
2013-09-22 00:12:00,58.5,57.6,29.75,SE,142,0.0,1.0,97,0.00,,,0.00,meteohub,2013-09-22 04:12:00,
2013-09-22 00:17:00,58.3,57.4,29.75,SE,142,0.0,1.0,97,0.00,,,0.00,meteohub,2013-09-22 04:17:00,
2013-09-22 00:22:00,58.3,57.4,29.75,SE,142,0.0,1.0,97,0.00,,,0.00,meteohub,2013-09-22 04:22:00,
2013-09-22 00:27:00,58.3,57.4,29.74,SE,142,0.0,1.0,97,0.00,,,0.00,meteohub,2013-09-22 04:27:00,
2013-09-22 00:32:00,58.1,57.2,29.74,SE,142,0.0,1.0,97,0.00,,,0.00,meteohub,2013-09-22 04:32:00,
2013-09-22 00:37:00,57.9,57.0,29.74,SE,142,0.0,0.0,97,0.00,,,0.00,meteohub,2013-09-22 04:37:00,
2013-09-22 00:42:00,57.9,57.0,29.74,SSE,158,0.0,0.0,97,0.00,,,0.00,meteohub,2013-09-22 04:42:00,
2013-09-22 00:47:00,57.9,57.0,29.74,SE,136,0.0,1.0,97,0.00,,,0.00,meteohub,2013-09-22 04:47:00,
2013-09-22 00:52:00,57.9,57.0,29.74,SE,136,0.0,1.0,97,0.00,,,0.00,meteohub,2013-09-22 04:52:00,
2013-09-22 00:57:00,57.9,57.0,29.75,SE,136,0.0,1.0,97,0.00,,,0.00,meteohub,2013-09-22 04:57:00,
2013-09-22 01:02:00,57.7,56.8,29.75,East,83,0.0,2.0,97,0.00,,,0.00,meteohub,2013-09-22 05:02:00,
2013-09-22 01:07:00,57.6,56.7,29.75,East,83,0.0,2.0,97,0.00,,,0.00,meteohub,2013-09-22 05:07:00,
2013-09-22 01:12:00,57.4,56.5,29.75,East,83,0.0,2.0,97,0.00,,,0.00,meteohub,2013-09-22 05:12:00,
2013-09-22 01:17:00,57.4,56.3,29.75,East,83,0.0,1.0,96,0.00,,,0.00,meteohub,2013-09-22 05:17:00,
2013-09-22 01:22:00,57.2,56.3,29.75,SE,134,0.0,1.0,97,0.00,,,0.00,meteohub,2013-09-22 05:22:00,
2013-09-22 01:27:00,57.0,56.1,29.75,SE,135,0.0,1.0,97,0.00,,,0.00,meteohub,2013-09-22 05:27:00,
2013-09-22 01:34:00,57.0,56.1,29.75,SE,142,0.0,1.0,97,0.00,,,0.00,meteohub,2013-09-22 05:34:00,
2013-09-22 01:40:00,57.0,56.1,29.75,SE,126,0.0,1.0,97,0.00,,,0.00,meteohub,2013-09-22 05:40:00,
2013-09-22 01:46:00,56.8,55.9,29.76,SE,146,0.0,1.0,97,0.00,,,0.00,meteohub,2013-09-22 05:46:00,
2013-09-22 01:52:00,56.8,55.8,29.76,South,173,0.0,2.0,96,0.00,,,0.00,meteohub,2013-09-22 05:52:00,
2013-09-22 01:57:00,56.7,55.6,29.76,South,188,0.0,2.0,96,0.00,,,0.00,meteohub,2013-09-22 05:57:00,
2013-09-22 02:02:00,56.7,55.6,29.76,SSE,153,0.0,2.0,96,0.00,,,0.00,meteohub,2013-09-22 06:02:00,
2013-09-22 02:07:00,56.5,55.4,29.76,SSE,153,0.0,3.0,96,0.00,,,0.00,meteohub,2013-09-22 06:07:00,
2013-09-22 02:13:00,56.1,55.0,29.76,SSE,153,0.0,3.0,96,0.00,,,0.00,meteohub,2013-09-22 06:13:00,
2013-09-22 02:19:00,56.1,55.0,29.76,SSE,153,1.0,1.0,96,0.00,,,0.00,meteohub,2013-09-22 06:19:00,
2013-09-22 02:25:00,55.9,54.9,29.76,ESE,123,2.0,2.0,96,0.00,,,0.00,meteohub,2013-09-22 06:25:00,
2013-09-22 02:31:00,55.9,54.9,29.77,SSE,151,0.0,2.0,96,0.01,,,0.01,meteohub,2013-09-22 06:31:00,
2013-09-22 02:37:00,55.9,54.9,29.77,SE,145,0.0,2.0,96,0.01,,,0.01,meteohub,2013-09-22 06:37:00,
2013-09-22 02:42:00,55.9,54.9,29.77,SE,144,0.0,2.0,96,0.01,,,0.01,meteohub,2013-09-22 06:42:00,
2013-09-22 02:47:00,55.8,54.7,29.77,SE,134,0.0,1.0,96,0.01,,,0.01,meteohub,2013-09-22 06:47:00,
2013-09-22 02:52:00,55.8,54.7,29.77,SE,134,0.0,1.0,96,0.01,,,0.01,meteohub,2013-09-22 06:52:00,
2013-09-22 02:57:00,55.6,54.5,29.77,SE,134,0.0,1.0,96,0.01,,,0.01,meteohub,2013-09-22 06:57:00,
2013-09-22 03:02:00,55.6,54.5,29.76,SE,134,0.0,1.0,96,0.01,,,0.01,meteohub,2013-09-22 07:02:00,
2013-09-22 03:07:00,55.6,54.5,29.77,SE,134,0.0,1.0,96,0.01,,,0.01,meteohub,2013-09-22 07:07:00,
2013-09-22 03:12:00,55.4,54.3,29.77,ESE,113,0.0,1.0,96,0.01,,,0.01,meteohub,2013-09-22 07:12:00,
2013-09-22 03:17:00,55.2,54.1,29.77,SE,126,0.0,2.0,96,0.01,,,0.01,meteohub,2013-09-22 07:17:00,
2013-09-22 03:22:00,55.0,54.0,29.77,SE,126,0.0,2.0,96,0.01,,,0.01,meteohub,2013-09-22 07:22:00,
2013-09-22 03:28:00,55.0,54.0,29.77,SE,126,0.0,2.0,96,0.00,,,0.01,meteohub,2013-09-22 07:28:00,
2013-09-22 03:34:00,54.9,53.8,29.78,SE,126,0.0,1.0,96,0.00,,,0.01,meteohub,2013-09-22 07:34:00,
2013-09-22 03:40:00,55.0,54.0,29.78,ESE,115,0.0,1.0,96,0.00,,,0.01,meteohub,2013-09-22 07:40:00,
2013-09-22 03:46:00,55.0,54.0,29.78,ESE,115,0.0,1.0,96,0.00,,,0.01,meteohub,2013-09-22 07:46:00,
2013-09-22 03:52:00,55.0,54.0,29.78,ESE,115,0.0,1.0,96,0.00,,,0.01,meteohub,2013-09-22 07:52:00,
2013-09-22 03:57:00,54.9,53.8,29.78,ESE,115,0.0,1.0,96,0.00,,,0.01,meteohub,2013-09-22 07:57:00,
2013-09-22 04:02:00,54.7,53.6,29.78,ESE,115,0.0,1.0,96,0.00,,,0.01,meteohub,2013-09-22 08:02:00,
2013-09-22 04:07:00,54.7,53.6,29.78,ESE,115,0.0,1.0,96,0.00,,,0.01,meteohub,2013-09-22 08:07:00,
2013-09-22 04:12:00,54.5,53.4,29.77,ESE,115,0.0,1.0,96,0.00,,,0.01,meteohub,2013-09-22 08:12:00,
2013-09-22 04:17:00,54.5,53.4,29.78,ESE,115,0.0,0.0,96,0.00,,,0.01,meteohub,2013-09-22 08:17:00,
2013-09-22 04:22:00,54.5,53.4,29.78,ESE,115,0.0,1.0,96,0.00,,,0.01,meteohub,2013-09-22 08:22:00,
2013-09-22 04:27:00,54.7,53.6,29.78,ESE,115,0.0,1.0,96,0.00,,,0.01,meteohub,2013-09-22 08:27:00,
2013-09-22 04:32:00,54.5,53.4,29.78,ESE,116,0.0,1.0,96,0.00,,,0.01,meteohub,2013-09-22 08:32:00,
2013-09-22 04:37:00,54.7,53.6,29.78,SE,136,1.0,1.0,96,0.00,,,0.01,meteohub,2013-09-22 08:37:00,
2013-09-22 04:42:00,54.5,53.4,29.78,SSE,153,0.0,1.0,96,0.00,,,0.01,meteohub,2013-09-22 08:42:00,
2013-09-22 04:47:00,54.3,53.2,29.78,SSE,153,0.0,2.0,96,0.00,,,0.01,meteohub,2013-09-22 08:47:00,
2013-09-22 04:52:00,54.3,53.2,29.78,SE,134,0.0,2.0,96,0.00,,,0.01,meteohub,2013-09-22 08:52:00,
2013-09-22 04:57:00,54.3,53.2,29.78,ESE,121,0.0,2.0,96,0.00,,,0.01,meteohub,2013-09-22 08:57:00,
2013-09-22 05:02:00,54.3,53.2,29.78,SE,126,1.0,2.0,96,0.00,,,0.01,meteohub,2013-09-22 09:02:00,
2013-09-22 05:07:00,54.5,53.1,29.79,SE,141,1.0,2.0,95,0.00,,,0.01,meteohub,2013-09-22 09:07:00,
2013-09-22 05:12:00,54.3,52.9,29.79,SE,141,0.0,2.0,95,0.00,,,0.01,meteohub,2013-09-22 09:12:00,
2013-09-22 05:17:00,54.3,52.9,29.79,SE,141,0.0,2.0,95,0.00,,,0.01,meteohub,2013-09-22 09:17:00,
2013-09-22 05:22:00,54.1,52.7,29.79,SE,141,0.0,2.0,95,0.00,,,0.01,meteohub,2013-09-22 09:22:00,
2013-09-22 05:27:00,54.3,52.9,29.79,SE,141,0.0,1.0,95,0.00,,,0.01,meteohub,2013-09-22 09:27:00,
2013-09-22 05:32:00,54.1,52.7,29.79,SE,141,0.0,1.0,95,0.00,,,0.01,meteohub,2013-09-22 09:32:00,
2013-09-22 05:37:00,54.1,52.7,29.80,SE,141,0.0,1.0,95,0.00,,,0.01,meteohub,2013-09-22 09:37:00,
2013-09-22 05:42:00,54.1,52.7,29.80,SE,141,0.0,1.0,95,0.00,,,0.01,meteohub,2013-09-22 09:42:00,
2013-09-22 05:47:00,54.1,52.7,29.80,SE,141,0.0,0.0,95,0.00,,,0.01,meteohub,2013-09-22 09:47:00,
2013-09-22 05:52:00,54.1,52.7,29.80,SE,141,0.0,1.0,95,0.00,,,0.01,meteohub,2013-09-22 09:52:00,
2013-09-22 05:57:00,54.0,52.5,29.80,SE,141,0.0,1.0,95,0.00,,,0.01,meteohub,2013-09-22 09:57:00,
2013-09-22 06:02:00,54.0,52.5,29.81,SE,141,0.0,1.0,95,0.00,,,0.01,meteohub,2013-09-22 10:02:00,
2013-09-22 06:07:00,53.8,52.3,29.81,SE,141,0.0,1.0,95,0.00,,,0.01,meteohub,2013-09-22 10:07:00,
2013-09-22 06:12:00,53.6,52.2,29.81,SE,141,0.0,0.0,95,0.00,,,0.01,meteohub,2013-09-22 10:12:00,
2013-09-22 06:17:00,53.4,52.0,29.81,SE,141,0.0,0.0,95,0.00,,,0.01,meteohub,2013-09-22 10:17:00,
2013-09-22 06:22:00,53.2,51.8,29.81,SE,141,0.0,0.0,95,0.00,,,0.01,meteohub,2013-09-22 10:22:00,
2013-09-22 06:27:00,53.2,51.8,29.81,SE,141,0.0,0.0,95,0.00,,,0.01,meteohub,2013-09-22 10:27:00,
2013-09-22 06:32:00,53.1,51.6,29.81,SE,141,0.0,0.0,95,0.00,,,0.01,meteohub,2013-09-22 10:32:00,
2013-09-22 06:37:00,53.1,51.6,29.81,SE,141,0.0,0.0,95,0.00,,,0.01,meteohub,2013-09-22 10:37:00,
2013-09-22 06:42:00,53.1,52.0,29.82,SE,141,0.0,0.0,96,0.00,,,0.01,meteohub,2013-09-22 10:42:00,
2013-09-22 06:47:00,52.9,51.8,29.82,SE,141,0.0,0.0,96,0.00,,,0.01,meteohub,2013-09-22 10:47:00,
2013-09-22 06:52:00,52.9,51.8,29.82,SE,141,0.0,0.0,96,0.00,,,0.01,meteohub,2013-09-22 10:52:00,
2013-09-22 06:57:00,52.7,51.6,29.82,SE,141,0.0,0.0,96,0.00,,,0.01,meteohub,2013-09-22 10:57:00,
2013-09-22 07:02:00,52.5,51.4,29.82,SE,141,0.0,0.0,96,0.00,,,0.01,meteohub,2013-09-22 11:02:00,
2013-09-22 07:07:00,52.3,51.3,29.82,SE,141,0.0,1.0,96,0.00,,,0.01,meteohub,2013-09-22 11:07:00,
2013-09-22 07:12:00,52.2,51.1,29.82,SE,141,0.0,2.0,96,0.00,,,0.01,meteohub,2013-09-22 11:12:00,
2013-09-22 07:17:00,52.3,51.3,29.83,SE,143,0.0,2.0,96,0.00,,,0.01,meteohub,2013-09-22 11:17:00,
2013-09-22 07:22:00,52.3,51.4,29.83,SE,143,0.0,2.0,97,0.00,,,0.01,meteohub,2013-09-22 11:22:00,
2013-09-22 07:27:00,52.3,51.4,29.83,SE,134,0.0,2.0,97,0.00,,,0.01,meteohub,2013-09-22 11:27:00,
2013-09-22 07:32:00,52.3,51.4,29.83,East,97,0.0,2.0,97,0.00,,,0.01,meteohub,2013-09-22 11:32:00,
2013-09-22 07:37:00,52.3,51.4,29.83,SE,139,0.0,2.0,97,0.00,,,0.01,meteohub,2013-09-22 11:37:00,
2013-09-22 07:42:00,52.3,51.4,29.83,SE,139,0.0,2.0,97,0.00,,,0.01,meteohub,2013-09-22 11:42:00,
2013-09-22 07:47:00,52.5,51.6,29.83,SE,139,0.0,2.0,97,0.00,,,0.01,meteohub,2013-09-22 11:47:00,
2013-09-22 07:52:00,52.9,52.0,29.83,SE,139,0.0,1.0,97,0.00,,,0.01,meteohub,2013-09-22 11:52:00,
2013-09-22 07:57:00,53.1,52.2,29.83,SE,139,0.0,1.0,97,0.00,,,0.01,meteohub,2013-09-22 11:57:00,
2013-09-22 08:02:00,53.2,52.3,29.83,SE,139,0.0,1.0,97,0.00,,,0.01,meteohub,2013-09-22 12:02:00,
2013-09-22 08:07:00,53.2,52.3,29.84,SE,139,0.0,1.0,97,0.00,,,0.01,meteohub,2013-09-22 12:07:00,
2013-09-22 08:12:00,53.2,52.3,29.84,SE,139,0.0,1.0,97,0.00,,,0.01,meteohub,2013-09-22 12:12:00,
2013-09-22 08:17:00,53.4,52.5,29.84,SE,139,0.0,0.0,97,0.00,,,0.01,meteohub,2013-09-22 12:17:00,
2013-09-22 08:22:00,53.4,52.5,29.84,SE,139,0.0,0.0,97,0.00,,,0.01,meteohub,2013-09-22 12:22:00,
2013-09-22 08:27:00,53.6,52.7,29.84,SE,139,0.0,0.0,97,0.00,,,0.01,meteohub,2013-09-22 12:27:00,
2013-09-22 08:32:00,53.8,52.9,29.84,SE,139,0.0,0.0,97,0.00,,,0.01,meteohub,2013-09-22 12:32:00,
2013-09-22 08:37:00,54.1,53.2,29.85,SE,139,0.0,0.0,97,0.00,,,0.01,meteohub,2013-09-22 12:37:00,
2013-09-22 08:42:00,54.7,53.8,29.85,SE,139,0.0,0.0,97,0.00,,,0.01,meteohub,2013-09-22 12:42:00,
2013-09-22 08:47:00,55.0,54.1,29.85,SE,140,0.0,0.0,97,0.00,,,0.01,meteohub,2013-09-22 12:47:00,
2013-09-22 08:52:00,55.4,54.5,29.85,SW,224,0.0,1.0,97,0.00,,,0.01,meteohub,2013-09-22 12:52:00,
2013-09-22 08:57:00,55.8,54.9,29.85,SW,224,0.0,2.0,97,0.00,,,0.01,meteohub,2013-09-22 12:57:00,
2013-09-22 09:02:00,55.9,54.9,29.85,WSW,245,0.0,2.0,96,0.00,,,0.01,meteohub,2013-09-22 13:02:00,
2013-09-22 09:07:00,55.9,54.9,29.86,WSW,245,0.0,1.0,96,0.00,,,0.01,meteohub,2013-09-22 13:07:00,
2013-09-22 09:12:00,56.1,54.7,29.86,WSW,245,0.0,1.0,95,0.00,,,0.01,meteohub,2013-09-22 13:12:00,
2013-09-22 09:17:00,56.7,55.0,29.86,SSW,196,0.0,1.0,94,0.00,,,0.01,meteohub,2013-09-22 13:17:00,
2013-09-22 09:22:00,57.0,55.0,29.86,SSW,198,0.0,2.0,93,0.00,,,0.01,meteohub,2013-09-22 13:22:00,
2013-09-22 09:27:00,57.0,54.7,29.86,SSW,202,0.0,2.0,92,0.00,,,0.01,meteohub,2013-09-22 13:27:00,
2013-09-22 09:32:00,57.4,54.9,29.86,SSW,202,0.0,2.0,91,0.00,,,0.01,meteohub,2013-09-22 13:32:00,
2013-09-22 09:40:00,57.6,55.2,29.87,SSW,202,0.0,1.0,92,0.00,,,0.01,meteohub,2013-09-22 13:40:00,
2013-09-22 09:46:00,57.7,55.4,29.87,SSW,202,0.0,0.0,92,0.00,,,0.01,meteohub,2013-09-22 13:46:00,
2013-09-22 09:52:00,57.7,55.2,29.87,SSW,203,0.0,1.0,91,0.00,,,0.01,meteohub,2013-09-22 13:52:00,
2013-09-22 09:58:00,57.9,55.2,29.87,SSW,203,0.0,1.0,91,0.00,,,0.01,meteohub,2013-09-22 13:58:00,
2013-09-22 10:04:00,58.5,55.6,29.87,NW,316,0.0,1.0,90,0.00,,,0.01,meteohub,2013-09-22 14:04:00,
2013-09-22 10:10:00,59.0,55.8,29.87,NW,317,1.0,1.0,89,0.00,,,0.01,meteohub,2013-09-22 14:10:00,
2013-09-22 10:16:00,59.5,55.9,29.87,NNW,331,1.0,2.0,88,0.00,,,0.01,meteohub,2013-09-22 14:16:00,
2013-09-22 10:22:00,59.5,55.9,29.87,NNW,331,0.0,2.0,88,0.00,,,0.01,meteohub,2013-09-22 14:22:00,
2013-09-22 10:27:00,59.7,55.8,29.87,NNW,330,0.0,2.0,87,0.00,,,0.01,meteohub,2013-09-22 14:27:00,
2013-09-22 10:32:00,60.3,56.7,29.88,NNW,329,0.0,2.0,88,0.00,,,0.01,meteohub,2013-09-22 14:32:00,
2013-09-22 10:37:00,60.4,57.2,29.88,NNW,327,0.0,2.0,89,0.00,,,0.01,meteohub,2013-09-22 14:37:00,
2013-09-22 10:42:00,60.4,56.5,29.88,NNW,328,0.0,2.0,87,0.00,,,0.01,meteohub,2013-09-22 14:42:00,
2013-09-22 10:47:00,60.3,56.3,29.88,NNW,328,1.0,3.0,87,0.00,,,0.01,meteohub,2013-09-22 14:47:00,
2013-09-22 10:52:00,59.7,56.1,29.88,NNW,328,0.0,3.0,88,0.00,,,0.01,meteohub,2013-09-22 14:52:00,
2013-09-22 10:57:00,59.9,56.3,29.88,WNW,300,1.0,3.0,88,0.00,,,0.01,meteohub,2013-09-22 14:57:00,
2013-09-22 11:04:00,60.6,57.4,29.88,NNW,329,1.0,2.0,89,0.00,,,0.01,meteohub,2013-09-22 15:04:00,
2013-09-22 11:10:00,60.4,56.8,29.88,NW,321,1.0,3.0,88,0.00,,,0.01,meteohub,2013-09-22 15:10:00,
2013-09-22 11:16:00,60.4,56.8,29.88,NW,323,1.0,3.0,88,0.00,,,0.01,meteohub,2013-09-22 15:16:00,
2013-09-22 11:22:00,60.4,57.2,29.88,NW,323,0.0,2.0,89,0.00,,,0.01,meteohub,2013-09-22 15:22:00,
2013-09-22 11:27:00,61.2,57.6,29.87,NW,323,0.0,2.0,88,0.00,,,0.01,meteohub,2013-09-22 15:27:00,
2013-09-22 11:32:00,61.7,57.2,29.88,NNW,328,0.0,2.0,85,0.00,,,0.01,meteohub,2013-09-22 15:32:00,
2013-09-22 11:37:00,62.2,57.7,29.88,NW,322,2.0,2.0,85,0.00,,,0.01,meteohub,2013-09-22 15:37:00,
2013-09-22 11:44:00,63.0,58.5,29.88,NW,324,1.0,3.0,85,0.00,,,0.01,meteohub,2013-09-22 15:44:00,
2013-09-22 11:50:00,63.1,57.6,29.87,NNW,327,0.0,3.0,82,0.00,,,0.01,meteohub,2013-09-22 15:50:00,
2013-09-22 11:56:00,63.1,57.6,29.87,WSW,240,0.0,3.0,82,0.00,,,0.01,meteohub,2013-09-22 15:56:00,
2013-09-22 12:02:00,63.3,58.1,29.87,NW,313,1.0,4.0,83,0.00,,,0.01,meteohub,2013-09-22 16:02:00,
2013-09-22 12:07:00,63.5,57.2,29.87,WNW,299,1.0,4.0,80,0.00,,,0.01,meteohub,2013-09-22 16:07:00,
2013-09-22 12:12:00,64.2,59.5,29.87,NW,315,1.0,3.0,85,0.00,,,0.01,meteohub,2013-09-22 16:12:00,
2013-09-22 12:17:00,64.9,59.0,29.87,NW,316,1.0,3.0,81,0.00,,,0.01,meteohub,2013-09-22 16:17:00,
2013-09-22 12:22:00,65.1,58.1,29.87,East,88,2.0,3.0,78,0.00,,,0.01,meteohub,2013-09-22 16:22:00,
2013-09-22 12:27:00,64.8,57.4,29.87,NW,323,1.0,3.0,77,0.00,,,0.01,meteohub,2013-09-22 16:27:00,
2013-09-22 12:32:00,64.6,57.2,29.87,NW,319,0.0,4.0,77,0.00,,,0.01,meteohub,2013-09-22 16:32:00,
2013-09-22 12:37:00,64.8,58.5,29.87,NW,318,0.0,4.0,80,0.00,,,0.01,meteohub,2013-09-22 16:37:00,
2013-09-22 12:42:00,64.4,57.0,29.87,NW,304,1.0,4.0,77,0.00,,,0.01,meteohub,2013-09-22 16:42:00,
2013-09-22 12:47:00,64.0,56.3,29.87,NW,319,0.0,4.0,76,0.00,,,0.01,meteohub,2013-09-22 16:47:00,
2013-09-22 12:52:00,64.0,57.4,29.87,NW,305,2.0,3.0,79,0.00,,,0.01,meteohub,2013-09-22 16:52:00,
2013-09-22 12:57:00,64.0,55.2,29.87,NW,305,2.0,3.0,73,0.00,,,0.01,meteohub,2013-09-22 16:57:00,
2013-09-22 13:02:00,63.9,56.1,29.87,NW,313,1.0,5.0,76,0.00,,,0.01,meteohub,2013-09-22 17:02:00,
2013-09-22 13:07:00,64.0,56.3,29.87,NW,323,0.0,5.0,76,0.00,,,0.01,meteohub,2013-09-22 17:07:00,
2013-09-22 13:12:00,64.0,54.9,29.87,NW,304,2.0,5.0,72,0.00,,,0.01,meteohub,2013-09-22 17:12:00,
2013-09-22 13:17:00,64.4,58.1,29.87,WNW,290,1.0,4.0,80,0.00,,,0.01,meteohub,2013-09-22 17:17:00,
2013-09-22 13:22:00,65.1,57.7,29.86,WNW,287,2.0,4.0,77,0.00,,,0.01,meteohub,2013-09-22 17:22:00,
2013-09-22 13:27:00,65.7,54.9,29.86,NW,325,3.0,4.0,68,0.00,,,0.01,meteohub,2013-09-22 17:27:00,
2013-09-22 13:32:00,66.0,56.3,29.86,WNW,291,2.0,4.0,71,0.00,,,0.01,meteohub,2013-09-22 17:32:00,
2013-09-22 13:37:00,65.8,55.4,29.86,WNW,297,2.0,4.0,69,0.00,,,0.01,meteohub,2013-09-22 17:37:00,
2013-09-22 13:42:00,66.4,58.3,29.86,WNW,298,0.0,4.0,75,0.00,,,0.01,meteohub,2013-09-22 17:42:00,
2013-09-22 13:47:00,66.9,56.8,29.85,WNW,302,0.0,4.0,70,0.00,,,0.01,meteohub,2013-09-22 17:47:00,
2013-09-22 13:52:00,67.3,57.2,29.85,NNW,335,1.0,4.0,70,0.00,,,0.01,meteohub,2013-09-22 17:52:00,
2013-09-22 13:57:00,67.6,57.0,29.85,NW,319,1.0,3.0,69,0.00,,,0.01,meteohub,2013-09-22 17:57:00,
2013-09-22 14:02:00,67.5,55.2,29.85,WNW,298,2.0,3.0,65,0.00,,,0.01,meteohub,2013-09-22 18:02:00,
2013-09-22 14:09:00,67.5,54.9,29.85,NW,325,0.0,4.0,64,0.00,,,0.01,meteohub,2013-09-22 18:09:00,
2013-09-22 14:15:00,68.2,55.6,29.84,West,281,0.0,5.0,64,0.00,,,0.01,meteohub,2013-09-22 18:15:00,
2013-09-22 14:21:00,67.5,54.0,29.84,WNW,300,0.0,5.0,62,0.00,,,0.01,meteohub,2013-09-22 18:21:00,
2013-09-22 14:27:00,66.4,53.8,29.85,NNW,344,0.0,4.0,64,0.00,,,0.01,meteohub,2013-09-22 18:27:00,
2013-09-22 14:32:00,65.5,53.8,29.85,NW,315,0.0,4.0,66,0.00,,,0.01,meteohub,2013-09-22 18:32:00,
2013-09-22 14:37:00,64.9,53.8,29.85,NNW,327,1.0,4.0,67,0.00,,,0.01,meteohub,2013-09-22 18:37:00,
2013-09-22 14:42:00,65.1,55.0,29.85,NW,309,1.0,4.0,70,0.00,,,0.01,meteohub,2013-09-22 18:42:00,
2013-09-22 14:47:00,66.6,56.5,29.85,NNW,330,1.0,4.0,70,0.00,,,0.01,meteohub,2013-09-22 18:47:00,
2013-09-22 14:52:00,67.6,55.4,29.85,NNW,336,0.0,3.0,65,0.00,,,0.01,meteohub,2013-09-22 18:52:00,
2013-09-22 14:57:00,67.8,54.3,29.84,WNW,302,2.0,3.0,62,0.00,,,0.01,meteohub,2013-09-22 18:57:00,
2013-09-22 15:03:00,68.5,54.5,29.84,NNW,332,1.0,3.0,61,0.00,,,0.01,meteohub,2013-09-22 19:03:00,
2013-09-22 15:09:00,68.5,53.6,29.84,WNW,298,2.0,3.0,59,0.00,,,0.01,meteohub,2013-09-22 19:09:00,
2013-09-22 15:15:00,68.7,55.2,29.84,NNW,334,0.0,6.0,62,0.00,,,0.01,meteohub,2013-09-22 19:15:00,
2013-09-22 15:21:00,68.4,52.0,29.84,NW,323,0.0,6.0,56,0.00,,,0.01,meteohub,2013-09-22 19:21:00,
2013-09-22 15:27:00,67.5,52.2,29.84,NW,309,0.0,3.0,58,0.00,,,0.01,meteohub,2013-09-22 19:27:00,
2013-09-22 15:32:00,66.9,52.5,29.84,WNW,301,0.0,3.0,60,0.00,,,0.01,meteohub,2013-09-22 19:32:00,
2013-09-22 15:37:00,67.5,53.6,29.84,WNW,290,0.0,4.0,61,0.00,,,0.01,meteohub,2013-09-22 19:37:00,
2013-09-22 15:42:00,67.8,54.0,29.85,North,355,0.0,4.0,61,0.00,,,0.01,meteohub,2013-09-22 19:42:00,
2013-09-22 15:47:00,68.7,52.9,29.84,NW,309,0.0,4.0,57,0.00,,,0.01,meteohub,2013-09-22 19:47:00,
2013-09-22 15:52:00,68.5,52.7,29.85,NNW,331,1.0,5.0,57,0.00,,,0.01,meteohub,2013-09-22 19:52:00,
2013-09-22 15:57:00,68.9,54.0,29.85,NW,325,1.0,5.0,59,0.00,,,0.01,meteohub,2013-09-22 19:57:00,
2013-09-22 16:02:00,69.3,55.8,29.85,NW,320,1.0,5.0,62,0.00,,,0.01,meteohub,2013-09-22 20:02:00,
2013-09-22 16:07:00,68.7,53.4,29.85,NW,314,0.0,4.0,58,0.00,,,0.01,meteohub,2013-09-22 20:07:00,
2013-09-22 16:12:00,68.7,54.3,29.85,NW,311,0.0,4.0,60,0.00,,,0.01,meteohub,2013-09-22 20:12:00,
2013-09-22 16:17:00,68.2,54.7,29.85,East,86,2.0,4.0,62,0.00,,,0.01,meteohub,2013-09-22 20:17:00,
2013-09-22 16:22:00,67.3,53.8,29.85,NW,305,0.0,3.0,62,0.00,,,0.01,meteohub,2013-09-22 20:22:00,
2013-09-22 16:27:00,66.6,53.1,29.85,WNW,290,0.0,3.0,62,0.00,,,0.01,meteohub,2013-09-22 20:27:00,
2013-09-22 16:32:00,66.4,54.3,29.85,NW,320,3.0,3.0,65,0.00,,,0.01,meteohub,2013-09-22 20:32:00,
2013-09-22 16:37:00,66.6,54.5,29.85,North,5,0.0,4.0,65,0.00,,,0.01,meteohub,2013-09-22 20:37:00,
2013-09-22 16:42:00,66.7,53.8,29.85,WNW,303,2.0,4.0,63,0.00,,,0.01,meteohub,2013-09-22 20:42:00,
2013-09-22 16:47:00,66.7,54.7,29.86,NW,306,0.0,4.0,65,0.00,,,0.01,meteohub,2013-09-22 20:47:00,
2013-09-22 16:52:00,66.4,53.8,29.86,NNW,344,0.0,3.0,64,0.00,,,0.01,meteohub,2013-09-22 20:52:00,
2013-09-22 16:57:00,65.7,52.7,29.86,North,355,0.0,4.0,63,0.00,,,0.01,meteohub,2013-09-22 20:57:00,
2013-09-22 17:02:00,65.1,50.4,29.86,North,9,0.0,4.0,59,0.00,,,0.01,meteohub,2013-09-22 21:02:00,
2013-09-22 17:07:00,65.1,52.7,29.86,ESE,108,0.0,4.0,64,0.00,,,0.01,meteohub,2013-09-22 21:07:00,
2013-09-22 17:12:00,65.1,52.2,29.86,WNW,290,2.0,4.0,63,0.00,,,0.01,meteohub,2013-09-22 21:12:00,
2013-09-22 17:17:00,64.8,52.3,29.86,WNW,298,0.0,5.0,64,0.00,,,0.01,meteohub,2013-09-22 21:17:00,
2013-09-22 17:22:00,64.0,51.3,29.87,NNW,346,1.0,5.0,63,0.00,,,0.01,meteohub,2013-09-22 21:22:00,
2013-09-22 17:27:00,63.3,50.0,29.87,NNW,345,1.0,3.0,62,0.00,,,0.01,meteohub,2013-09-22 21:27:00,
2013-09-22 17:34:00,63.1,51.6,29.87,West,277,0.0,5.0,66,0.00,,,0.01,meteohub,2013-09-22 21:34:00,
2013-09-22 17:41:00,63.0,51.1,29.88,NW,321,0.0,5.0,65,0.00,,,0.01,meteohub,2013-09-22 21:41:00,
2013-09-22 17:47:00,62.4,49.6,29.88,WNW,291,2.0,5.0,63,0.00,,,0.01,meteohub,2013-09-22 21:47:00,
2013-09-22 17:53:00,62.1,49.8,29.88,NW,314,0.0,6.0,64,0.00,,,0.01,meteohub,2013-09-22 21:53:00,
2013-09-22 17:59:00,61.5,49.3,29.88,NNW,329,0.0,6.0,64,0.00,,,0.01,meteohub,2013-09-22 21:59:00,
2013-09-22 18:05:00,61.2,48.0,29.89,WNW,298,2.0,6.0,62,0.00,,,0.01,meteohub,2013-09-22 22:05:00,
2013-09-22 18:11:00,61.0,48.4,29.89,NW,324,0.0,5.0,63,0.00,,,0.01,meteohub,2013-09-22 22:11:00,
2013-09-22 18:17:00,60.6,48.7,29.89,NNW,333,0.0,4.0,65,0.00,,,0.01,meteohub,2013-09-22 22:17:00,
2013-09-22 18:23:00,60.3,48.9,29.89,NW,325,1.0,4.0,66,0.00,,,0.01,meteohub,2013-09-22 22:23:00,
2013-09-22 18:29:00,60.1,49.1,29.89,NW,323,0.0,3.0,67,0.00,,,0.01,meteohub,2013-09-22 22:29:00,
2013-09-22 18:35:00,59.5,47.8,29.89,NW,325,0.0,3.0,65,0.00,,,0.01,meteohub,2013-09-22 22:35:00,
2013-09-22 18:41:00,59.4,48.0,29.89,NNW,328,0.0,2.0,66,0.00,,,0.01,meteohub,2013-09-22 22:41:00,
2013-09-22 18:47:00,59.2,48.2,29.90,NW,312,0.0,2.0,67,0.00,,,0.01,meteohub,2013-09-22 22:47:00,
2013-09-22 18:52:00,58.8,48.2,29.90,WNW,302,0.0,2.0,68,0.00,,,0.01,meteohub,2013-09-22 22:52:00,
2013-09-22 18:57:00,58.6,47.7,29.90,North,350,0.0,2.0,67,0.00,,,0.01,meteohub,2013-09-22 22:57:00,
2013-09-22 19:02:00,58.5,48.0,29.90,NNW,329,0.0,2.0,68,0.00,,,0.01,meteohub,2013-09-22 23:02:00,
2013-09-22 19:07:00,58.3,48.6,29.90,NNW,329,0.0,3.0,70,0.00,,,0.01,meteohub,2013-09-22 23:07:00,
2013-09-22 19:12:00,57.9,48.2,29.90,NNW,330,0.0,3.0,70,0.00,,,0.01,meteohub,2013-09-22 23:12:00,
2013-09-22 19:17:00,57.7,48.0,29.91,NNW,330,0.0,2.0,70,0.00,,,0.01,meteohub,2013-09-22 23:17:00,
2013-09-22 19:22:00,57.6,48.2,29.91,NNW,330,0.0,1.0,71,0.00,,,0.01,meteohub,2013-09-22 23:22:00,
2013-09-22 19:27:00,57.4,48.0,29.91,NNW,330,0.0,1.0,71,0.00,,,0.01,meteohub,2013-09-22 23:27:00,
2013-09-22 19:32:00,57.0,48.0,29.91,NNW,330,0.0,1.0,72,0.00,,,0.01,meteohub,2013-09-22 23:32:00,
2013-09-22 19:37:00,56.8,47.8,29.91,NNW,330,0.0,1.0,72,0.00,,,0.01,meteohub,2013-09-22 23:37:00,
2013-09-22 19:42:00,56.7,48.0,29.91,NNW,329,0.0,1.0,73,0.00,,,0.01,meteohub,2013-09-22 23:42:00,
2013-09-22 19:48:00,56.7,48.4,29.92,NNW,336,0.0,1.0,74,0.00,,,0.01,meteohub,2013-09-22 23:48:00,
2013-09-22 19:54:00,56.7,48.7,29.92,NNW,338,0.0,2.0,75,0.00,,,0.01,meteohub,2013-09-22 23:54:00,
2013-09-22 20:00:00,56.5,48.7,29.92,NNW,333,0.0,2.0,75,0.00,,,0.01,meteohub,2013-09-23 00:00:00,
2013-09-22 20:06:00,56.7,48.7,29.93,NW,324,0.0,2.0,75,0.00,,,0.01,meteohub,2013-09-23 00:06:00,
2013-09-22 20:12:00,56.8,48.6,29.93,NNW,337,1.0,2.0,74,0.00,,,0.01,meteohub,2013-09-23 00:12:00,
2013-09-22 20:18:00,56.8,48.6,29.93,WNW,301,1.0,3.0,74,0.00,,,0.01,meteohub,2013-09-23 00:18:00,
2013-09-22 20:24:00,56.8,48.9,29.93,NNW,339,0.0,4.0,75,0.00,,,0.01,meteohub,2013-09-23 00:24:00,
2013-09-22 20:30:00,56.8,48.6,29.93,NW,304,0.0,2.0,74,0.00,,,0.01,meteohub,2013-09-23 00:30:00,
2013-09-22 20:36:00,56.7,49.1,29.93,NNW,338,0.0,2.0,76,0.00,,,0.01,meteohub,2013-09-23 00:36:00,
2013-09-22 20:42:00,56.7,49.1,29.94,NNW,331,1.0,2.0,76,0.00,,,0.01,meteohub,2013-09-23 00:42:00,
2013-09-22 20:47:00,56.7,49.1,29.94,NNW,331,0.0,2.0,76,0.00,,,0.01,meteohub,2013-09-23 00:47:00,
2013-09-22 20:52:00,56.5,48.9,29.94,NNW,331,0.0,3.0,76,0.00,,,0.01,meteohub,2013-09-23 00:52:00,
2013-09-22 20:57:00,56.5,49.3,29.94,NW,319,0.0,3.0,77,0.00,,,0.01,meteohub,2013-09-23 00:57:00,
2013-09-22 21:02:00,56.3,49.1,29.94,NNW,342,0.0,3.0,77,0.00,,,0.01,meteohub,2013-09-23 01:02:00,
2013-09-22 21:09:00,55.9,48.9,29.94,NNW,329,0.0,3.0,77,0.00,,,0.01,meteohub,2013-09-23 01:09:00,
2013-09-22 21:15:00,55.8,48.7,29.95,NNW,333,1.0,2.0,77,0.00,,,0.01,meteohub,2013-09-23 01:15:00,
2013-09-22 21:22:00,55.6,48.9,29.95,NNW,329,0.0,2.0,78,0.00,,,0.01,meteohub,2013-09-23 01:22:00,
2013-09-22 21:27:00,55.4,48.4,29.95,NNW,329,0.0,2.0,77,0.00,,,0.01,meteohub,2013-09-23 01:27:00,
2013-09-22 21:32:00,55.0,48.4,29.95,NNW,329,0.0,2.0,78,0.00,,,0.01,meteohub,2013-09-23 01:32:00,
2013-09-22 21:37:00,54.9,48.6,29.96,NNW,329,0.0,2.0,79,0.00,,,0.01,meteohub,2013-09-23 01:37:00,
2013-09-22 21:42:00,54.7,48.4,29.96,NNW,329,0.0,1.0,79,0.00,,,0.01,meteohub,2013-09-23 01:42:00,
2013-09-22 21:47:00,54.5,48.2,29.96,NNW,329,0.0,1.0,79,0.00,,,0.01,meteohub,2013-09-23 01:47:00,
2013-09-22 21:52:00,54.3,48.0,29.96,NNW,329,0.0,1.0,79,0.00,,,0.01,meteohub,2013-09-23 01:52:00,
2013-09-22 21:57:00,54.1,47.8,29.96,NNW,329,0.0,1.0,79,0.00,,,0.01,meteohub,2013-09-23 01:57:00,
2013-09-22 22:04:00,53.8,47.5,29.97,NNW,329,0.0,0.0,79,0.00,,,0.01,meteohub,2013-09-23 02:04:00,
2013-09-22 22:10:00,53.4,47.5,29.97,NNW,329,0.0,0.0,80,0.00,,,0.01,meteohub,2013-09-23 02:10:00,
2013-09-22 22:16:00,53.1,47.7,29.97,NNW,329,0.0,0.0,82,0.00,,,0.01,meteohub,2013-09-23 02:16:00,
2013-09-22 22:22:00,52.9,47.5,29.97,NNW,329,0.0,0.0,82,0.00,,,0.01,meteohub,2013-09-23 02:22:00,
2013-09-22 22:27:00,52.5,47.1,29.97,NNW,329,0.0,0.0,82,0.00,,,0.01,meteohub,2013-09-23 02:27:00,
2013-09-22 22:32:00,52.3,46.9,29.97,NNW,329,0.0,0.0,82,0.00,,,0.01,meteohub,2013-09-23 02:32:00,
2013-09-22 22:37:00,52.3,46.9,29.97,NNW,329,0.0,0.0,82,0.00,,,0.01,meteohub,2013-09-23 02:37:00,
2013-09-22 22:42:00,52.3,47.3,29.97,NNW,329,0.0,0.0,83,0.00,,,0.01,meteohub,2013-09-23 02:42:00,
2013-09-22 22:47:00,52.2,47.1,29.97,NNW,329,0.0,0.0,83,0.00,,,0.01,meteohub,2013-09-23 02:47:00,
2013-09-22 22:52:00,52.2,47.1,29.98,NNW,329,0.0,0.0,83,0.00,,,0.01,meteohub,2013-09-23 02:52:00,
2013-09-22 22:57:00,52.0,46.9,29.98,NNW,329,0.0,0.0,83,0.00,,,0.01,meteohub,2013-09-23 02:57:00,
2013-09-22 23:02:00,52.0,46.9,29.98,NNW,329,0.0,0.0,83,0.00,,,0.01,meteohub,2013-09-23 03:02:00,
2013-09-22 23:07:00,51.6,46.9,29.98,NNW,329,0.0,0.0,84,0.00,,,0.01,meteohub,2013-09-23 03:07:00,
2013-09-22 23:12:00,51.4,46.8,29.98,NNW,329,0.0,0.0,84,0.00,,,0.01,meteohub,2013-09-23 03:12:00,
2013-09-22 23:17:00,51.3,46.6,29.98,NNW,329,0.0,0.0,84,0.00,,,0.01,meteohub,2013-09-23 03:17:00,
2013-09-22 23:22:00,51.1,46.8,29.98,NNW,329,0.0,1.0,85,0.00,,,0.01,meteohub,2013-09-23 03:22:00,
2013-09-22 23:27:00,50.9,46.6,29.99,NNW,329,0.0,1.0,85,0.00,,,0.01,meteohub,2013-09-23 03:27:00,
2013-09-22 23:32:00,50.7,46.8,29.98,NNW,329,0.0,0.0,86,0.00,,,0.01,meteohub,2013-09-23 03:32:00,
2013-09-22 23:37:00,50.7,46.8,29.98,NNW,329,0.0,0.0,86,0.00,,,0.01,meteohub,2013-09-23 03:37:00,
2013-09-22 23:42:00,50.5,46.6,29.98,NNW,329,0.0,0.0,86,0.00,,,0.01,meteohub,2013-09-23 03:42:00,
2013-09-22 23:47:00,50.4,46.6,29.99,NNW,329,0.0,0.0,87,0.00,,,0.01,meteohub,2013-09-23 03:47:00,
2013-09-22 23:52:00,50.4,46.6,29.99,NNW,329,0.0,0.0,87,0.00,,,0.01,meteohub,2013-09-23 03:52:00,
2013-09-22 23:57:00,50.4,46.6,29.98,NNW,329,0.0,0.0,87,0.00,,,0.01,meteohub,2013-09-23 03:57:00,